PORTS® Data Listing: 8454049 Quonset Point, RI

CO-OPS RAW PORTS DATA

************************      PRELIMINARY DATA      ************************** 

     THIS RAW DATA HAS NOT BEEN SUBJECT TO THE NATIONAL OCEAN SERVICE'S        
     QUALITY CONTROL OR QUALITY ASSURANCE PROCEDURES AND DOES NOT MEET         
     THE CRITERIA AND STANDARDS OF OFFICIAL NATIONAL OCEAN SERVICE             
     DATA.  IT IS RELEASED FOR LIMITED PUBLIC USE AS PRELIMINARY DATA TO       
     BE USED ONLY WITH APPROPRIATE CAUTION.                                    

************************      PRELIMINARY DATA      ************************** 


       CD   -   Calendar date
       T    -   Time
       TZ   -   Timezone
       PW   -   Predicted water level (feet above MLLW)
       OW   -   Observed water level (feet above MLLW)
       WS   -   Wind speed (knots)
       WD   -   Wind direction (degrees true)
       WG   -   Wind gust (knots)
       AT   -   Air temperature (degrees farenheit)
       WT   -   Water temperature (degrees farenheit)
       AP   -   Air pressure (millibars)
       SA   -   Salinty (PSU - Practical Salinity Units)
       SG   -   Specific gravity
       RH   -   Relative humidity
       AG   -   Air gap (feet)
       VI   -   Visibility (nautical miles)

       ** NOTE **
       A variable that has its data fields filled with "9"s, indicates that
       data was not collected for that sample period.
       **********


STATION NAME: Quonset Point (8454049)
****************************************************************************************************
    CD       T    TZ    PW     OW    WS   WD   WG    AT    WT    AP    SA    SG     RH    AG   VI
****************************************************************************************************
2019/10/17 10:36 EDT    3.94   4.78   24  242   31  55.4  59.5  985.4 30.0  1.023 -99.9 -99.99 -9.99
2019/10/17 10:42 EDT    3.94   4.69   26  242   32  55.6  59.5  985.5 30.1  1.023 -99.9 -99.99 -9.99
2019/10/17 10:48 EDT    3.93   4.67   25  244   33  55.8  59.7  985.5 30.2  1.023 -99.9 -99.99 -9.99
2019/10/17 10:54 EDT    3.92   4.65   23  245   29  55.9  59.9  985.5 30.4  1.023 -99.9 -99.99 -9.99
2019/10/17 11:00 EDT    3.90   4.57   24  247   33  55.9  59.9  985.6 30.4  1.023 -99.9 -99.99 -9.99
2019/10/17 11:06 EDT    3.88   4.47   25  246   29  55.9  59.7  985.4 30.3  1.023 -99.9 -99.99 -9.99
2019/10/17 11:12 EDT    3.85   4.41   27  244   32  56.1  59.9  985.5 30.4  1.023 -99.9 -99.99 -9.99
2019/10/17 11:18 EDT    3.81   4.43   25  246   31  56.1  59.9  985.5 30.4  1.023 -99.9 -99.99 -9.99
2019/10/17 11:24 EDT    3.77   4.46   21  244   30  56.1  59.9  985.7 30.4  1.023 -99.9 -99.99 -9.99
2019/10/17 11:30 EDT    3.73   4.33   27  241   32  56.1  59.9  985.5 30.4  1.023 -99.9 -99.99 -9.99
2019/10/17 11:36 EDT    3.68   4.22   28  246   33  55.9  59.9  985.5 30.4  1.023 -99.9 -99.99 -9.99
2019/10/17 11:42 EDT    3.62   4.15   24  246   37  56.3  59.9  985.5 30.4  1.023 -99.9 -99.99 -9.99
2019/10/17 11:48 EDT    3.56   4.02   24  243   33  56.3  59.9  985.5 30.4  1.023 -99.9 -99.99 -9.99
2019/10/17 11:54 EDT    3.50   3.85   26  246   32  56.5  59.9  985.6 30.4  1.023 -99.9 -99.99 -9.99
2019/10/17 12:00 EDT    3.43   3.76   25  240   31  56.5  59.9  985.5 30.3  1.023 -99.9 -99.99 -9.99
2019/10/17 12:06 EDT    3.36   3.72   25  238   30  56.5  59.9  985.6 30.4  1.023 -99.9 -99.99 -9.99
2019/10/17 12:12 EDT    3.28   3.58   21  249   28  56.8  59.9  985.5 30.4  1.023 -99.9 -99.99 -9.99
2019/10/17 12:18 EDT    3.20   3.46   20  242   34  56.8  59.9  985.5 30.4  1.023 -99.9 -99.99 -9.99
2019/10/17 12:24 EDT    3.12   3.33   27  242   36  56.7  59.9  985.3 30.4  1.023 -99.9 -99.99 -9.99
2019/10/17 12:30 EDT    3.03   3.27   21  252   32  56.8  60.1  985.4 30.4  1.023 -99.9 -99.99 -9.99
2019/10/17 12:36 EDT    2.95   3.21   22  251   32  57.0  59.9  985.4 30.4  1.023 -99.9 -99.99 -9.99
2019/10/17 12:42 EDT    2.85   3.08   23  249   30  57.2  59.9  985.4 30.4  1.023 -99.9 -99.99 -9.99
2019/10/17 12:48 EDT    2.76   3.06   26  245   36  57.2  59.9  985.3 30.4  1.023 -99.9 -99.99 -9.99
2019/10/17 12:54 EDT    2.66   2.89   27  253   43  57.2  59.9  985.3 30.4  1.023 -99.9 -99.99 -9.99
2019/10/17 13:00 EDT    2.57   2.77   25  244   34  57.2  59.9  985.3 30.4  1.023 -99.9 -99.99 -9.99
2019/10/17 13:06 EDT    2.47   2.64   22  255   33  57.4  59.9  985.4 28.8  1.022 -99.9 -99.99 -9.99
2019/10/17 13:12 EDT    2.37   2.53   27  244   37  57.2  59.9  985.2 30.4  1.023 -99.9 -99.99 -9.99
2019/10/17 13:18 EDT    2.27   2.44   25  243   33  57.2  59.9  985.4 30.3  1.023 -99.9 -99.99 -9.99
2019/10/17 13:24 EDT    2.17   2.34   24  240   34  57.2  59.9  985.5 30.3  1.023 -99.9 -99.99 -9.99
2019/10/17 13:30 EDT    2.07   2.18   22  245   29  57.0  59.9  985.6 30.3  1.023 -99.9 -99.99 -9.99
2019/10/17 13:36 EDT    1.97   2.00   27  241   33  56.8  59.7  985.5 30.2  1.023 -99.9 -99.99 -9.99
2019/10/17 13:42 EDT    1.87   1.93   25  242   34  56.7  59.7  985.4 30.2  1.023 -99.9 -99.99 -9.99
2019/10/17 13:48 EDT    1.77   1.84   28  243   36  56.7  59.7  985.4 30.2  1.023 -99.9 -99.99 -9.99
2019/10/17 13:54 EDT    1.67   1.72   26  244   34  56.8  59.7  985.6 30.3  1.023 -99.9 -99.99 -9.99
2019/10/17 14:00 EDT    1.57   1.70   23  248   31  57.0  59.7  985.7 30.3  1.023 -99.9 -99.99 -9.99
2019/10/17 14:06 EDT    1.48   1.67   19  255   34  57.0  59.7  985.9 30.3  1.023 -99.9 -99.99 -9.99
2019/10/17 14:12 EDT    1.38   1.54   19  253   29  57.0  59.7  985.9 30.3  1.023 -99.9 -99.99 -9.99
2019/10/17 14:18 EDT    1.29   1.44   23  248   32  56.8  59.7  985.9 30.3  1.023 -99.9 -99.99 -9.99
2019/10/17 14:24 EDT    1.20   1.42   26  243   30  56.8  59.7  985.9 30.3  1.023 -99.9 -99.99 -9.99
2019/10/17 14:30 EDT    1.12   1.38   23  249   34  56.8  59.7  985.9 30.3  1.023 -99.9 -99.99 -9.99
2019/10/17 14:36 EDT    1.03   1.27   20  246   29  56.7  59.7  986.2 30.3  1.023 -99.9 -99.99 -9.99
2019/10/17 14:42 EDT    0.95   1.14   24  246   31  56.5  59.7  986.0 30.3  1.023 -99.9 -99.99 -9.99
2019/10/17 14:48 EDT    0.88   1.04   21  249   34  56.7  59.7  986.4 30.3  1.023 -99.9 -99.99 -9.99
2019/10/17 14:54 EDT    0.80   0.93   22  248   30  56.5  59.7  986.5 30.3  1.023 -99.9 -99.99 -9.99
2019/10/17 15:00 EDT    0.74   0.80   20  248   27  56.7  59.7  986.6 30.3  1.023 -99.9 -99.99 -9.99
2019/10/17 15:06 EDT    0.67   0.75   20  247   26  56.5  59.7  986.7 30.3  1.023 -99.9 -99.99 -9.99
2019/10/17 15:12 EDT    0.61   0.69   20  254   28  56.5  59.7  986.9 30.2  1.023 -99.9 -99.99 -9.99
2019/10/17 15:18 EDT    0.56   0.62   20  250   26  56.5  59.7  987.0 30.2  1.023 -99.9 -99.99 -9.99
2019/10/17 15:24 EDT    0.51   0.51   23  250   27  56.5  59.7  987.0 30.1  1.023 -99.9 -99.99 -9.99
2019/10/17 15:30 EDT    0.46   0.49   21  250   28  56.5  59.7  987.2 30.1  1.023 -99.9 -99.99 -9.99
2019/10/17 15:36 EDT    0.42   0.48   17  255   25  56.5  59.7  987.4 30.2  1.023 -99.9 -99.99 -9.99
2019/10/17 15:42 EDT    0.38   0.44   15  255   24  56.5  59.7  987.7 30.2  1.023 -99.9 -99.99 -9.99
2019/10/17 15:48 EDT    0.35   0.41   14  261   22  56.5  59.7  987.9 30.2  1.023 -99.9 -99.99 -9.99
2019/10/17 15:54 EDT    0.33   0.38   16  283   22  55.6  59.7  988.4 30.2  1.023 -99.9 -99.99 -9.99
2019/10/17 16:00 EDT    0.31   0.27    9  277   23  54.5  59.7  988.7 30.1  1.023 -99.9 -99.99 -9.99
2019/10/17 16:06 EDT    0.29   0.18   11  266   20  54.1  59.7  988.7 30.1  1.023 -99.9 -99.99 -9.99
2019/10/17 16:12 EDT    0.28   0.17   11  279   18  53.8  59.7  988.9 30.1  1.023 -99.9 -99.99 -9.99
2019/10/17 16:18 EDT    0.27   0.16   10  272   24  54.0  59.5  989.0 30.2  1.023 -99.9 -99.99 -9.99
2019/10/17 16:24 EDT    0.27   0.12   11  266   17  54.1  59.5  989.1 30.2  1.023 -99.9 -99.99 -9.99
2019/10/17 16:30 EDT    0.27   0.10   11  269   19  54.3  59.5  989.2 30.2  1.023 -99.9 -99.99 -9.99
2019/10/17 16:36 EDT    0.28   0.07   11  282   21  54.1  59.5  989.3 30.1  1.023 -99.9 -99.99 -9.99
2019/10/17 16:42 EDT    0.29   0.06   11  273   20  54.1  59.5  989.5 30.1  1.023 -99.9 -99.99 -9.99
2019/10/17 16:48 EDT    0.31   0.08    9  270   17  54.5  59.5  989.6 30.1  1.023 -99.9 -99.99 -9.99
2019/10/17 16:54 EDT    0.33   0.10    9  280   19  54.3  59.5  989.7 30.1  1.023 -99.9 -99.99 -9.99
2019/10/17 17:00 EDT    0.35   0.12   12  271   21  54.7  59.5  989.8 30.1  1.023 -99.9 -99.99 -9.99
2019/10/17 17:06 EDT    0.38   0.08   12  270   20  54.3  59.5  989.9 30.1  1.023 -99.9 -99.99 -9.99
2019/10/17 17:12 EDT    0.41   0.07   10  282   24  53.8  59.5  990.0 30.1  1.023 -99.9 -99.99 -9.99
2019/10/17 17:18 EDT    0.44   0.11   11  267   19  54.0  59.5  990.1 30.2  1.023 -99.9 -99.99 -9.99
2019/10/17 17:24 EDT    0.47   0.14   11  271   20  53.8  59.5  990.2 30.1  1.023 -99.9 -99.99 -9.99
2019/10/17 17:30 EDT    0.51   0.18    7  269   17  54.0  59.5  990.3 30.1  1.023 -99.9 -99.99 -9.99
2019/10/17 17:36 EDT    0.55   0.19   11  262   22  54.0  59.5  990.5 30.1  1.023 -99.9 -99.99 -9.99
2019/10/17 17:42 EDT    0.59   0.22   10  269   19  54.0  59.5  990.5 30.1  1.023 -99.9 -99.99 -9.99
2019/10/17 17:48 EDT    0.63   0.25   10  265   23  53.8  59.5  990.6 23.9  1.018 -99.9 -99.99 -9.99
2019/10/17 17:54 EDT    0.67   0.28   13  262   26  54.0  59.5  990.6 30.1  1.023 -99.9 -99.99 -9.99
2019/10/17 18:00 EDT    0.71   0.35   13  265   23  53.8  59.5  990.7 24.0  1.018 -99.9 -99.99 -9.99
2019/10/17 18:06 EDT    0.76   0.39   11  264   24  53.6  59.5  990.9 25.3  1.019 -99.9 -99.99 -9.99
2019/10/17 18:12 EDT    0.81   0.41   11  277   16  53.4  59.5  991.1 20.0  1.015 -99.9 -99.99 -9.99
2019/10/17 18:18 EDT    0.85   0.45    8  268   17  53.8  59.5  991.3 20.0  1.015 -99.9 -99.99 -9.99
2019/10/17 18:24 EDT    0.90   0.49   10  263   19  53.4  59.5  991.5 19.4  1.015 -99.9 -99.99 -9.99
2019/10/17 18:30 EDT    0.95   0.51   12  259   20  53.6  59.5  991.5 19.3  1.015 -99.9 -99.99 -9.99
2019/10/17 18:36 EDT    0.99   0.56   13  262   22  53.4  59.4  991.5 18.4  1.014 -99.9 -99.99 -9.99
2019/10/17 18:42 EDT    1.04   0.68   16  255   21  53.6  59.2  991.5 19.2  1.015 -99.9 -99.99 -9.99
2019/10/17 18:48 EDT    1.09   0.70   15  251   21  53.8  59.2  991.6 19.5  1.015 -99.9 -99.99 -9.99
2019/10/17 18:54 EDT    1.14   0.68   13  259   26  53.8  59.2  991.8 19.3  1.015 -99.9 -99.99 -9.99
2019/10/17 19:00 EDT    1.19   0.75   12  261   19  53.8  59.2  992.0 19.3  1.015 -99.9 -99.99 -9.99
2019/10/17 19:06 EDT    1.24   0.79   16  257   23  54.0  59.2  992.1 19.3  1.015 -99.9 -99.99 -9.99
2019/10/17 19:12 EDT    1.29   0.85   11  259   20  54.0  59.0  992.4 19.1  1.015 -99.9 -99.99 -9.99
2019/10/17 19:18 EDT    1.35   0.94   15  255   21  54.1  59.0  992.4 18.9  1.015 -99.9 -99.99 -9.99
2019/10/17 19:24 EDT    1.40   1.00   10  270   21  53.6  59.0  992.6 18.9  1.015 -99.9 -99.99 -9.99
2019/10/17 19:30 EDT    1.45   1.05   11  263   21  54.0  59.0  992.7 18.8  1.014 -99.9 -99.99 -9.99
2019/10/17 19:36 EDT    1.51   1.11   13  263   20  54.0  59.0  992.8 18.7  1.014 -99.9 -99.99 -9.99
2019/10/17 19:42 EDT    1.56   1.22   13  259   19  54.1  59.0  992.8 18.7  1.014 -99.9 -99.99 -9.99
2019/10/17 19:48 EDT    1.62   1.30   16  255   25  54.1  59.0  992.8 18.8  1.014 -99.9 -99.99 -9.99
2019/10/17 19:54 EDT    1.68   1.35   11  266   21  54.0  59.0  992.9 19.0  1.015 -99.9 -99.99 -9.99
2019/10/17 20:00 EDT    1.74   1.40    9  265   19  54.0  59.0  993.0 19.2  1.015 -99.9 -99.99 -9.99
2019/10/17 20:06 EDT    1.80   1.48   11  266   20  53.8  59.0  993.2 19.2  1.015 -99.9 -99.99 -9.99
2019/10/17 20:12 EDT    1.87   1.57   13  256   17  54.1  59.0  993.3 19.3  1.015 -99.9 -99.99 -9.99
2019/10/17 20:18 EDT    1.93   1.67   14  253   20  54.1  59.0  993.3 19.1  1.015 -99.9 -99.99 -9.99
2019/10/17 20:24 EDT    2.00   1.73   14  256   21  54.0  59.0  993.4 19.1  1.015 -99.9 -99.99 -9.99
2019/10/17 20:30 EDT    2.06   1.83   13  259   19  54.0  58.8  993.5 18.9  1.015 -99.9 -99.99 -9.99
2019/10/17 20:36 EDT    2.13   1.91    8  269   18  53.6  58.8  993.8 18.9  1.015 -99.9 -99.99 -9.99
2019/10/17 20:42 EDT    2.20   1.96    7  267   13  53.6  58.8  993.9 19.0  1.015 -99.9 -99.99 -9.99
2019/10/17 20:48 EDT    2.27   2.10    7  270   14  53.6  58.8  994.1 19.1  1.015 -99.9 -99.99 -9.99
2019/10/17 20:54 EDT    2.34   2.20    8  261   13  53.8  58.8  994.2 19.3  1.015 -99.9 -99.99 -9.99
2019/10/17 21:00 EDT    2.41   2.27    7  266   15  53.6  58.8  994.3 19.7  1.015 -99.9 -99.99 -9.99
2019/10/17 21:06 EDT    2.48   2.32    8  263   13  53.6  58.8  994.4 19.4  1.015 -99.9 -99.99 -9.99
2019/10/17 21:12 EDT    2.55   2.41    8  269   12  53.4  58.8  994.6 19.7  1.015 -99.9 -99.99 -9.99
2019/10/17 21:18 EDT    2.62   2.46    9  267   14  53.4  59.0  994.8 19.1  1.015 -99.9 -99.99 -9.99
2019/10/17 21:24 EDT    2.69   2.54    8  269   14  53.4  58.8  994.9 19.2  1.015 -99.9 -99.99 -9.99
2019/10/17 21:30 EDT    2.76   2.65    8  265   13  53.8  58.8  995.0 19.2  1.015 -99.9 -99.99 -9.99
2019/10/17 21:36 EDT    2.83   2.71    8  263   17  53.6  59.0  995.2 19.3  1.015 -99.9 -99.99 -9.99
2019/10/17 21:42 EDT    2.89   2.74    7  265   12  53.6  59.2  995.3 19.4  1.015 -99.9 -99.99 -9.99
2019/10/17 21:48 EDT    2.96   2.79   11  259   16  53.8  59.0  995.3 19.4  1.015 -99.9 -99.99 -9.99
2019/10/17 21:54 EDT    3.02   2.87   10  265   18  53.6  59.0  995.4 19.5  1.015 -99.9 -99.99 -9.99
2019/10/17 22:00 EDT    3.08   2.98   12  255   17  53.8  59.0  995.5 19.7  1.015 -99.9 -99.99 -9.99
2019/10/17 22:06 EDT    3.13   3.01   12  255   17  53.6  58.8  995.6 19.7  1.015 -99.9 -99.99 -9.99
2019/10/17 22:12 EDT    3.18   3.09   11  253   17  53.8  58.8  995.8 19.8  1.015 -99.9 -99.99 -9.99
2019/10/17 22:18 EDT    3.23   3.15   12  255   16  53.6  58.8  995.9 19.7  1.015 -99.9 -99.99 -9.99
2019/10/17 22:24 EDT    3.27   3.19   12  256   18  53.4  59.0  996.1 19.8  1.015 -99.9 -99.99 -9.99
2019/10/17 22:30 EDT    3.31   3.24   13  254   18  53.6  59.0  996.1 18.9  1.014 -99.9 -99.99 -9.99
2019/10/17 22:36 EDT    3.35   3.28   13  253   17  53.4  58.8  996.3 19.1  1.015 -99.9 -99.99 -9.99
2019/10/17 22:42 EDT    3.38   3.30   11  255   16  53.2  59.0  996.4 19.2  1.015 -99.9 -99.99 -9.99
2019/10/17 22:48 EDT    3.40   3.31   10  256   17  53.1  59.2  996.5 19.0  1.015 -99.9 -99.99 -9.99
2019/10/17 22:54 EDT    3.42   3.32   11  255   16  53.2  59.0  996.6 19.0  1.015 -99.9 -99.99 -9.99
2019/10/17 23:00 EDT    3.43   3.31    9  265   14  53.1  59.0  996.7 18.7  1.014 -99.9 -99.99 -9.99
2019/10/17 23:06 EDT    3.44   3.35    8  268   16  53.1  59.0  996.8 19.1  1.015 -99.9 -99.99 -9.99
2019/10/17 23:12 EDT    3.44   3.37    6  269   14  53.1  59.0  996.9 19.1  1.015 -99.9 -99.99 -9.99
2019/10/17 23:18 EDT    3.43   3.37    8  271   13  53.1  59.2  997.0 19.3  1.015 -99.9 -99.99 -9.99
2019/10/17 23:24 EDT    3.42   3.35    8  277   16  53.1  59.2  997.1 19.5  1.015 -99.9 -99.99 -9.99
2019/10/17 23:30 EDT    3.40   3.32    6  272   13  53.1  59.2  997.3 19.5  1.015 -99.9 -99.99 -9.99
2019/10/17 23:36 EDT    3.38   3.31    8  273   14  53.2  59.2  997.4 19.5  1.015 -99.9 -99.99 -9.99
2019/10/17 23:42 EDT    3.35   3.29    6  273   11  53.1  59.2  997.6 19.7  1.015 -99.9 -99.99 -9.99
2019/10/17 23:48 EDT    3.31   3.25    6  271   14  53.2  59.2  997.7 19.6  1.015 -99.9 -99.99 -9.99
2019/10/17 23:54 EDT    3.27   3.22    7  275   13  53.2  59.2  997.8 19.7  1.015 -99.9 -99.99 -9.99
2019/10/18 00:00 EDT    3.22   3.17    6  281   12  53.1  59.2  997.9 19.8  1.015 -99.9 -99.99 -9.99
2019/10/18 00:06 EDT    3.17   3.12    8  268   13  53.2  59.2  997.9 19.8  1.015 -99.9 -99.99 -9.99
2019/10/18 00:12 EDT    3.11   3.10    7  277   13  53.2  59.2  997.9 19.9  1.015 -99.9 -99.99 -9.99
2019/10/18 00:18 EDT    3.05   3.05    8  285   12  53.2  59.2  997.9 19.9  1.015 -99.9 -99.99 -9.99
2019/10/18 00:24 EDT    2.98   3.02    7  279   14  53.1  59.2  998.0 20.0  1.015 -99.9 -99.99 -9.99
2019/10/18 00:30 EDT    2.91   2.92   10  281   14  53.2  59.2  998.1 20.1  1.015 -99.9 -99.99 -9.99
2019/10/18 00:36 EDT    2.84   2.87    7  274   13  53.2  59.4  998.1 20.0  1.015 -99.9 -99.99 -9.99
2019/10/18 00:42 EDT    2.76   2.82    6  279   14  53.1  59.4  998.2 20.1  1.015 -99.9 -99.99 -9.99
2019/10/18 00:48 EDT    2.67   2.75    5  279   13  53.1  59.4  998.3 20.1  1.015 -99.9 -99.99 -9.99
2019/10/18 00:54 EDT    2.59   2.65    7  287   13  52.9  59.4  998.5 19.6  1.015 -99.9 -99.99 -9.99
2019/10/18 01:00 EDT    2.50   2.57    7  284   12  52.9  59.4  998.5 20.0  1.015 -99.9 -99.99 -9.99
2019/10/18 01:06 EDT    2.40   2.50    8  288   13  52.7  59.4  998.6 19.9  1.015 -99.9 -99.99 -9.99
2019/10/18 01:12 EDT    2.31   2.40    9  285   14  52.7  59.4  998.6 19.9  1.015 -99.9 -99.99 -9.99
2019/10/18 01:18 EDT    2.21   2.27    8  269   13  53.1  59.4  998.7 20.0  1.015 -99.9 -99.99 -9.99
2019/10/18 01:24 EDT    2.11   2.13    8  275   11  52.9  59.4  998.8 20.0  1.015 -99.9 -99.99 -9.99
2019/10/18 01:30 EDT    2.02   2.06    7  272   13  53.1  59.4  998.8 20.0  1.015 -99.9 -99.99 -9.99
2019/10/18 01:36 EDT    1.92   1.99    6  277   10  52.9  59.4  998.9 20.0  1.015 -99.9 -99.99 -9.99
2019/10/18 01:42 EDT    1.81   1.85    6  269   12  52.7  59.4  999.0 19.8  1.015 -99.9 -99.99 -9.99
2019/10/18 01:48 EDT    1.71   1.73    8  276   15  52.7  59.4  999.0 19.9  1.015 -99.9 -99.99 -9.99
2019/10/18 01:54 EDT    1.61   1.63    7  280   14  52.7  59.4  999.2 20.0  1.015 -99.9 -99.99 -9.99
2019/10/18 02:00 EDT    1.51   1.55    7  281   12  52.7  59.4  999.3 20.0  1.015 -99.9 -99.99 -9.99
2019/10/18 02:06 EDT    1.41   1.43    8  280   13  52.7  59.4  999.5 19.9  1.015 -99.9 -99.99 -9.99
2019/10/18 02:12 EDT    1.32   1.35    6  280   12  52.7  59.4  999.6 20.0  1.015 -99.9 -99.99 -9.99
2019/10/18 02:18 EDT    1.22   1.27    6  270   10  52.7  59.2  999.6 20.1  1.015 -99.9 -99.99 -9.99
2019/10/18 02:24 EDT    1.13   1.15    7  279   13  52.7  59.2  999.7 19.9  1.015 -99.9 -99.99 -9.99
2019/10/18 02:30 EDT    1.04   0.99    7  277   12  52.5  59.2  999.7 20.0  1.015 -99.9 -99.99 -9.99
2019/10/18 02:36 EDT    0.95   0.89    5  282   12  52.2  59.2  999.8 20.1  1.015 -99.9 -99.99 -9.99
2019/10/18 02:42 EDT    0.86   0.82    7  285   13  52.2  59.2  999.8 20.1  1.015 -99.9 -99.99 -9.99
2019/10/18 02:48 EDT    0.78   0.73    6  275   11  52.2  59.0  999.9 20.0  1.015 -99.9 -99.99 -9.99
2019/10/18 02:54 EDT    0.70   0.65    9  280   14  52.2  59.0 1000.0 20.0  1.015 -99.9 -99.99 -9.99
2019/10/18 03:00 EDT    0.63   0.56   11  281   15  52.2  59.0 1000.0 19.6  1.015 -99.9 -99.99 -9.99
2019/10/18 03:06 EDT    0.56   0.49    8  274   13  52.3  59.0 1000.1 19.9  1.015 -99.9 -99.99 -9.99
2019/10/18 03:12 EDT    0.50   0.44    6  282   11  52.0  59.2 1000.2 19.9  1.015 -99.9 -99.99 -9.99
2019/10/18 03:18 EDT    0.44   0.40    6  283    9  52.0  59.0 1000.3 19.9  1.015 -99.9 -99.99 -9.99
2019/10/18 03:24 EDT    0.38   0.36    8  284   12  52.0  59.0 1000.2 19.5  1.015 -99.9 -99.99 -9.99
2019/10/18 03:30 EDT    0.33   0.28    8  283   12  51.8  59.0 1000.3 19.6  1.015 -99.9 -99.99 -9.99
2019/10/18 03:36 EDT    0.29   0.23    6  281   12  51.8  59.0 1000.4 19.4  1.015 -99.9 -99.99 -9.99
2019/10/18 03:42 EDT    0.25   0.18    6  283   10  51.6  59.0 1000.4 19.4  1.015 -99.9 -99.99 -9.99
2019/10/18 03:48 EDT    0.22   0.18    7  278   11  51.6  59.0 1000.5 19.4  1.015 -99.9 -99.99 -9.99
2019/10/18 03:54 EDT    0.19   0.16    8  277   14  51.6  59.0 1000.6 19.6  1.015 -99.9 -99.99 -9.99
2019/10/18 04:00 EDT    0.17   0.14    7  272   11  51.6  59.0 1000.7 19.8  1.015 -99.9 -99.99 -9.99
2019/10/18 04:06 EDT    0.16   0.12    5  274   11  51.6  59.0 1000.8 19.9  1.015 -99.9 -99.99 -9.99
2019/10/18 04:12 EDT    0.15   0.10    4  284   10  51.3  59.0 1000.9 19.9  1.015 -99.9 -99.99 -9.99
2019/10/18 04:18 EDT    0.14   0.09    7  280   10  51.3  59.0 1000.9 19.9  1.015 -99.9 -99.99 -9.99
2019/10/18 04:24 EDT    0.15   0.10    7  286   13  51.1  59.0 1000.8 19.9  1.015 -99.9 -99.99 -9.99
2019/10/18 04:30 EDT    0.16 -99.99 -999 -999 -999 -99.9 -99.9 -999.9 -9.9 -9.999 -99.9 -99.99 -9.99
2019/10/18 04:36 EDT    0.17 -99.99 -999 -999 -999 -99.9 -99.9 -999.9 -9.9 -9.999 -99.9 -99.99 -9.99
2019/10/18 04:42 EDT    0.19 -99.99 -999 -999 -999 -99.9 -99.9 -999.9 -9.9 -9.999 -99.9 -99.99 -9.99
2019/10/18 04:48 EDT    0.22 -99.99 -999 -999 -999 -99.9 -99.9 -999.9 -9.9 -9.999 -99.9 -99.99 -9.99
2019/10/18 04:54 EDT    0.25 -99.99 -999 -999 -999 -99.9 -99.9 -999.9 -9.9 -9.999 -99.9 -99.99 -9.99
2019/10/18 05:00 EDT    0.28 -99.99 -999 -999 -999 -99.9 -99.9 -999.9 -9.9 -9.999 -99.9 -99.99 -9.99
2019/10/18 05:06 EDT    0.32 -99.99 -999 -999 -999 -99.9 -99.9 -999.9 -9.9 -9.999 -99.9 -99.99 -9.99
2019/10/18 05:12 EDT    0.37 -99.99 -999 -999 -999 -99.9 -99.9 -999.9 -9.9 -9.999 -99.9 -99.99 -9.99
2019/10/18 05:18 EDT    0.42 -99.99 -999 -999 -999 -99.9 -99.9 -999.9 -9.9 -9.999 -99.9 -99.99 -9.99
2019/10/18 05:24 EDT    0.47 -99.99 -999 -999 -999 -99.9 -99.9 -999.9 -9.9 -9.999 -99.9 -99.99 -9.99
2019/10/18 05:30 EDT    0.52 -99.99 -999 -999 -999 -99.9 -99.9 -999.9 -9.9 -9.999 -99.9 -99.99 -9.99
2019/10/18 05:36 EDT    0.58 -99.99 -999 -999 -999 -99.9 -99.9 -999.9 -9.9 -9.999 -99.9 -99.99 -9.99
2019/10/18 05:42 EDT    0.64 -99.99 -999 -999 -999 -99.9 -99.9 -999.9 -9.9 -9.999 -99.9 -99.99 -9.99
2019/10/18 05:48 EDT    0.70 -99.99 -999 -999 -999 -99.9 -99.9 -999.9 -9.9 -9.999 -99.9 -99.99 -9.99
2019/10/18 05:54 EDT    0.77 -99.99 -999 -999 -999 -99.9 -99.9 -999.9 -9.9 -9.999 -99.9 -99.99 -9.99
2019/10/18 06:00 EDT    0.84 -99.99 -999 -999 -999 -99.9 -99.9 -999.9 -9.9 -9.999 -99.9 -99.99 -9.99
2019/10/18 06:06 EDT    0.90 -99.99 -999 -999 -999 -99.9 -99.9 -999.9 -9.9 -9.999 -99.9 -99.99 -9.99
2019/10/18 06:12 EDT    0.97 -99.99 -999 -999 -999 -99.9 -99.9 -999.9 -9.9 -9.999 -99.9 -99.99 -9.99
2019/10/18 06:18 EDT    1.04 -99.99 -999 -999 -999 -99.9 -99.9 -999.9 -9.9 -9.999 -99.9 -99.99 -9.99
2019/10/18 06:24 EDT    1.11 -99.99 -999 -999 -999 -99.9 -99.9 -999.9 -9.9 -9.999 -99.9 -99.99 -9.99
2019/10/18 06:30 EDT    1.18 -99.99 -999 -999 -999 -99.9 -99.9 -999.9 -9.9 -9.999 -99.9 -99.99 -9.99
2019/10/18 06:36 EDT    1.25 -99.99 -999 -999 -999 -99.9 -99.9 -999.9 -9.9 -9.999 -99.9 -99.99 -9.99
2019/10/18 06:42 EDT    1.32 -99.99 -999 -999 -999 -99.9 -99.9 -999.9 -9.9 -9.999 -99.9 -99.99 -9.99
2019/10/18 06:48 EDT    1.39 -99.99 -999 -999 -999 -99.9 -99.9 -999.9 -9.9 -9.999 -99.9 -99.99 -9.99
2019/10/18 06:54 EDT    1.45 -99.99 -999 -999 -999 -99.9 -99.9 -999.9 -9.9 -9.999 -99.9 -99.99 -9.99
2019/10/18 07:00 EDT    1.52 -99.99 -999 -999 -999 -99.9 -99.9 -999.9 -9.9 -9.999 -99.9 -99.99 -9.99
2019/10/18 07:06 EDT    1.59 -99.99 -999 -999 -999 -99.9 -99.9 -999.9 -9.9 -9.999 -99.9 -99.99 -9.99
2019/10/18 07:12 EDT    1.65 -99.99 -999 -999 -999 -99.9 -99.9 -999.9 -9.9 -9.999 -99.9 -99.99 -9.99
2019/10/18 07:18 EDT    1.72 -99.99 -999 -999 -999 -99.9 -99.9 -999.9 -9.9 -9.999 -99.9 -99.99 -9.99
2019/10/18 07:24 EDT    1.79 -99.99 -999 -999 -999 -99.9 -99.9 -999.9 -9.9 -9.999 -99.9 -99.99 -9.99
2019/10/18 07:30 EDT    1.85 -99.99 -999 -999 -999 -99.9 -99.9 -999.9 -9.9 -9.999 -99.9 -99.99 -9.99
2019/10/18 07:36 EDT    1.91 -99.99 -999 -999 -999 -99.9 -99.9 -999.9 -9.9 -9.999 -99.9 -99.99 -9.99
2019/10/18 07:42 EDT    1.98 -99.99 -999 -999 -999 -99.9 -99.9 -999.9 -9.9 -9.999 -99.9 -99.99 -9.99
2019/10/18 07:48 EDT    2.04 -99.99 -999 -999 -999 -99.9 -99.9 -999.9 -9.9 -9.999 -99.9 -99.99 -9.99
2019/10/18 07:54 EDT    2.10 -99.99 -999 -999 -999 -99.9 -99.9 -999.9 -9.9 -9.999 -99.9 -99.99 -9.99
2019/10/18 08:00 EDT    2.16 -99.99 -999 -999 -999 -99.9 -99.9 -999.9 -9.9 -9.999 -99.9 -99.99 -9.99
2019/10/18 08:06 EDT    2.23 -99.99 -999 -999 -999 -99.9 -99.9 -999.9 -9.9 -9.999 -99.9 -99.99 -9.99
2019/10/18 08:12 EDT    2.29 -99.99 -999 -999 -999 -99.9 -99.9 -999.9 -9.9 -9.999 -99.9 -99.99 -9.99
2019/10/18 08:18 EDT    2.35 -99.99 -999 -999 -999 -99.9 -99.9 -999.9 -9.9 -9.999 -99.9 -99.99 -9.99
2019/10/18 08:24 EDT    2.41 -99.99 -999 -999 -999 -99.9 -99.9 -999.9 -9.9 -9.999 -99.9 -99.99 -9.99
2019/10/18 08:30 EDT    2.47 -99.99 -999 -999 -999 -99.9 -99.9 -999.9 -9.9 -9.999 -99.9 -99.99 -9.99
2019/10/18 08:36 EDT    2.54 -99.99 -999 -999 -999 -99.9 -99.9 -999.9 -9.9 -9.999 -99.9 -99.99 -9.99
2019/10/18 08:42 EDT    2.60 -99.99 -999 -999 -999 -99.9 -99.9 -999.9 -9.9 -9.999 -99.9 -99.99 -9.99
2019/10/18 08:48 EDT    2.66 -99.99 -999 -999 -999 -99.9 -99.9 -999.9 -9.9 -9.999 -99.9 -99.99 -9.99
2019/10/18 08:54 EDT    2.72 -99.99 -999 -999 -999 -99.9 -99.9 -999.9 -9.9 -9.999 -99.9 -99.99 -9.99
2019/10/18 09:00 EDT    2.79 -99.99 -999 -999 -999 -99.9 -99.9 -999.9 -9.9 -9.999 -99.9 -99.99 -9.99
2019/10/18 09:06 EDT    2.85 -99.99 -999 -999 -999 -99.9 -99.9 -999.9 -9.9 -9.999 -99.9 -99.99 -9.99
2019/10/18 09:12 EDT    2.91 -99.99 -999 -999 -999 -99.9 -99.9 -999.9 -9.9 -9.999 -99.9 -99.99 -9.99
2019/10/18 09:18 EDT    2.98 -99.99 -999 -999 -999 -99.9 -99.9 -999.9 -9.9 -9.999 -99.9 -99.99 -9.99
2019/10/18 09:24 EDT    3.04 -99.99 -999 -999 -999 -99.9 -99.9 -999.9 -9.9 -9.999 -99.9 -99.99 -9.99
2019/10/18 09:30 EDT    3.10 -99.99 -999 -999 -999 -99.9 -99.9 -999.9 -9.9 -9.999 -99.9 -99.99 -9.99
2019/10/18 09:36 EDT    3.17 -99.99 -999 -999 -999 -99.9 -99.9 -999.9 -9.9 -9.999 -99.9 -99.99 -9.99
2019/10/18 09:42 EDT    3.23 -99.99 -999 -999 -999 -99.9 -99.9 -999.9 -9.9 -9.999 -99.9 -99.99 -9.99
2019/10/18 09:48 EDT    3.29 -99.99 -999 -999 -999 -99.9 -99.9 -999.9 -9.9 -9.999 -99.9 -99.99 -9.99
2019/10/18 09:54 EDT    3.34 -99.99 -999 -999 -999 -99.9 -99.9 -999.9 -9.9 -9.999 -99.9 -99.99 -9.99
2019/10/18 10:00 EDT    3.40 -99.99 -999 -999 -999 -99.9 -99.9 -999.9 -9.9 -9.999 -99.9 -99.99 -9.99
2019/10/18 10:06 EDT    3.46 -99.99 -999 -999 -999 -99.9 -99.9 -999.9 -9.9 -9.999 -99.9 -99.99 -9.99
2019/10/18 10:12 EDT    3.51 -99.99 -999 -999 -999 -99.9 -99.9 -999.9 -9.9 -9.999 -99.9 -99.99 -9.99
2019/10/18 10:18 EDT    3.56 -99.99 -999 -999 -999 -99.9 -99.9 -999.9 -9.9 -9.999 -99.9 -99.99 -9.99
2019/10/18 10:24 EDT    3.60 -99.99 -999 -999 -999 -99.9 -99.9 -999.9 -9.9 -9.999 -99.9 -99.99 -9.99
2019/10/18 10:30 EDT    3.65 -99.99 -999 -999 -999 -99.9 -99.9 -999.9 -9.9 -9.999 -99.9 -99.99 -9.99
2019/10/18 10:36 EDT    3.69 -99.99 -999 -999 -999 -99.9 -99.9 -999.9 -9.9 -9.999 -99.9 -99.99 -9.99